Time,TemperatureF,DewpointF,PressureIn,WindDirection,WindDirectionDegrees,WindSpeedMPH,WindSpeedGustMPH,Humidity,HourlyPrecipIn,Conditions,Clouds,dailyrainin,SoftwareType,DateUTC
2013-06-17 00:01:00,58.7,41.6,27.45,ENE,68,0.0,0.0,53,0.00,,,0.00,WUHU216HW,2013-06-17 07:01:00,
2013-06-17 00:06:00,58.5,41.4,27.45,ENE,68,0.0,0.0,53,0.00,,,0.00,WUHU216HW,2013-06-17 07:06:00,
2013-06-17 00:11:00,58.5,41.4,27.45,ENE,68,0.0,0.0,53,0.00,,,0.00,WUHU216HW,2013-06-17 07:11:00,
2013-06-17 00:16:00,58.3,41.8,27.45,ENE,68,0.0,0.0,54,0.00,,,0.00,WUHU216HW,2013-06-17 07:16:00,
2013-06-17 00:21:00,58.0,41.4,27.45,ENE,68,0.0,0.0,54,0.00,,,0.00,WUHU216HW,2013-06-17 07:21:00,
2013-06-17 00:26:00,58.0,41.9,27.45,ENE,68,0.0,0.0,55,0.00,,,0.00,WUHU216HW,2013-06-17 07:26:00,
2013-06-17 00:31:00,57.8,42.2,27.45,ENE,68,0.0,0.0,56,0.00,,,0.00,WUHU216HW,2013-06-17 07:31:00,
2013-06-17 00:36:00,57.6,41.6,27.45,ENE,68,0.0,0.0,55,0.00,,,0.00,WUHU216HW,2013-06-17 07:36:00,
2013-06-17 00:41:00,57.6,41.6,27.45,ESE,113,1.6,1.6,55,0.00,,,0.00,WUHU216HW,2013-06-17 07:41:00,
2013-06-17 00:46:00,57.6,43.4,27.45,NNE,23,0.7,2.5,59,0.00,,,0.00,WUHU216HW,2013-06-17 07:46:00,
2013-06-17 00:51:00,57.8,43.6,27.46,SE,135,0.4,2.5,59,0.00,,,0.00,WUHU216HW,2013-06-17 07:51:00,
2013-06-17 00:56:00,58.0,43.3,27.45,North,0,0.4,1.1,58,0.00,,,0.00,WUHU216HW,2013-06-17 07:56:00,
2013-06-17 01:01:00,58.3,44.1,27.45,North,0,0.0,0.9,59,0.00,,,0.00,WUHU216HW,2013-06-17 08:01:00,
2013-06-17 01:06:00,58.5,43.7,27.45,NNW,338,0.0,0.7,58,0.00,,,0.00,WUHU216HW,2013-06-17 08:06:00,
2013-06-17 01:11:00,58.5,43.7,27.45,NNW,338,0.0,0.0,58,0.00,,,0.00,WUHU216HW,2013-06-17 08:11:00,
2013-06-17 01:16:00,58.5,43.7,27.45,ESE,113,0.0,0.0,58,0.00,,,0.00,WUHU216HW,2013-06-17 08:16:00,
2013-06-17 01:21:00,58.3,44.1,27.44,ESE,113,0.0,2.0,59,0.00,,,0.00,WUHU216HW,2013-06-17 08:21:00,
2013-06-17 01:26:00,58.3,43.6,27.44,SE,135,0.0,2.0,58,0.00,,,0.00,WUHU216HW,2013-06-17 08:26:00,
2013-06-17 01:31:00,58.3,43.6,27.44,NNW,338,0.0,0.2,58,0.00,,,0.00,WUHU216HW,2013-06-17 08:31:00,
2013-06-17 01:36:00,58.1,43.9,27.44,NNW,338,0.0,0.0,59,0.00,,,0.00,WUHU216HW,2013-06-17 08:36:00,
2013-06-17 01:41:00,57.8,44.5,27.44,NNW,338,0.0,0.2,61,0.00,,,0.00,WUHU216HW,2013-06-17 08:41:00,
2013-06-17 01:46:00,57.2,45.2,27.46,SSW,203,1.6,2.0,64,0.00,,,0.00,WUHU216HW,2013-06-17 08:46:00,
2013-06-17 01:51:00,58.3,44.6,27.45,NNE,23,0.4,2.0,60,0.00,,,0.00,WUHU216HW,2013-06-17 08:51:00,
2013-06-17 01:56:00,59.2,45.4,27.45,SW,225,0.4,1.8,60,0.00,,,0.00,WUHU216HW,2013-06-17 08:56:00,
2013-06-17 02:01:00,60.1,45.3,27.45,SW,225,0.7,1.1,58,0.00,,,0.00,WUHU216HW,2013-06-17 09:01:00,
2013-06-17 02:06:00,60.8,45.6,27.46,SW,225,1.1,1.1,57,0.00,,,0.00,WUHU216HW,2013-06-17 09:06:00,
2013-06-17 02:11:00,61.4,45.6,27.46,SSW,203,1.1,1.6,56,0.00,,,0.00,WUHU216HW,2013-06-17 09:11:00,
2013-06-17 02:16:00,61.9,45.6,27.46,SW,225,1.1,1.8,55,0.00,,,0.00,WUHU216HW,2013-06-17 09:16:00,
2013-06-17 02:21:00,62.3,45.4,27.46,SW,225,1.1,1.8,54,0.00,,,0.00,WUHU216HW,2013-06-17 09:21:00,
2013-06-17 02:26:00,62.3,45.4,27.46,SW,225,0.9,1.8,54,0.00,,,0.00,WUHU216HW,2013-06-17 09:26:00,
2013-06-17 02:31:00,62.5,45.6,27.46,SE,135,0.7,1.3,54,0.00,,,0.00,WUHU216HW,2013-06-17 09:31:00,
2013-06-17 02:36:00,62.5,45.6,27.46,SE,135,0.2,1.1,54,0.00,,,0.00,WUHU216HW,2013-06-17 09:36:00,
2013-06-17 02:41:00,62.6,45.7,27.46,SE,135,0.4,1.1,54,0.00,,,0.00,WUHU216HW,2013-06-17 09:41:00,
2013-06-17 02:46:00,62.6,45.7,27.46,SE,135,0.9,0.9,54,0.00,,,0.00,WUHU216HW,2013-06-17 09:46:00,
2013-06-17 02:51:00,62.6,46.2,27.46,SE,135,0.0,0.9,55,0.00,,,0.00,WUHU216HW,2013-06-17 09:51:00,
2013-06-17 02:56:00,62.6,46.2,27.46,SE,135,0.0,0.9,55,0.00,,,0.00,WUHU216HW,2013-06-17 09:56:00,
2013-06-17 03:01:00,62.5,46.0,27.46,WSW,248,0.0,0.0,55,0.00,,,0.00,WUHU216HW,2013-06-17 10:01:00,
2013-06-17 03:06:00,62.5,46.5,27.46,SE,135,0.9,1.1,56,0.00,,,0.00,WUHU216HW,2013-06-17 10:06:00,
2013-06-17 03:11:00,62.5,47.4,27.46,SSE,158,0.7,1.1,58,0.00,,,0.00,WUHU216HW,2013-06-17 10:11:00,
2013-06-17 03:16:00,62.5,47.4,27.47,SE,135,0.9,0.9,58,0.00,,,0.00,WUHU216HW,2013-06-17 10:16:00,
2013-06-17 03:21:00,62.5,48.0,27.46,South,180,0.2,1.1,59,0.00,,,0.00,WUHU216HW,2013-06-17 10:21:00,
2013-06-17 03:26:00,62.6,48.2,27.47,SE,135,0.2,1.3,59,0.00,,,0.00,WUHU216HW,2013-06-17 10:26:00,
2013-06-17 03:31:00,62.5,47.0,27.46,ESE,113,0.0,1.3,57,0.00,,,0.00,WUHU216HW,2013-06-17 10:31:00,
2013-06-17 03:37:00,62.3,47.4,27.47,ESE,113,0.4,0.7,58,0.00,,,0.00,WUHU216HW,2013-06-17 10:37:00,
2013-06-17 03:42:00,61.9,46.5,27.47,ENE,68,0.0,0.4,57,0.00,,,0.00,WUHU216HW,2013-06-17 10:42:00,
2013-06-17 03:47:00,61.7,46.8,27.47,SSE,158,0.9,0.9,58,0.00,,,0.00,WUHU216HW,2013-06-17 10:47:00,
2013-06-17 03:52:00,61.4,47.4,27.47,SE,135,0.2,1.3,60,0.00,,,0.00,WUHU216HW,2013-06-17 10:52:00,
2013-06-17 03:57:00,61.2,48.2,27.47,SSE,158,0.9,2.0,62,0.00,,,0.00,WUHU216HW,2013-06-17 10:57:00,
2013-06-17 04:02:00,60.8,47.8,27.47,SE,135,0.2,2.0,62,0.00,,,0.00,WUHU216HW,2013-06-17 11:02:00,
2013-06-17 04:07:00,60.8,47.8,27.47,ESE,113,0.4,1.3,62,0.00,,,0.00,WUHU216HW,2013-06-17 11:07:00,
2013-06-17 04:12:00,60.7,48.4,27.47,SE,135,0.4,1.3,64,0.00,,,0.00,WUHU216HW,2013-06-17 11:12:00,
2013-06-17 04:17:00,60.3,48.1,27.47,SSE,158,0.9,0.9,64,0.00,,,0.00,WUHU216HW,2013-06-17 11:17:00,
2013-06-17 04:22:00,60.1,47.9,27.47,SE,135,0.4,1.8,64,0.00,,,0.00,WUHU216HW,2013-06-17 11:22:00,
2013-06-17 04:27:00,60.1,48.3,27.47,ESE,113,2.2,2.2,65,0.00,,,0.00,WUHU216HW,2013-06-17 11:27:00,
2013-06-17 04:32:00,60.1,47.5,27.47,ESE,113,0.7,2.2,63,0.00,,,0.00,WUHU216HW,2013-06-17 11:32:00,
2013-06-17 04:37:00,59.8,47.2,27.47,SE,135,0.9,1.1,63,0.00,,,0.00,WUHU216HW,2013-06-17 11:37:00,
2013-06-17 04:42:00,59.6,47.3,27.48,SE,135,0.4,1.1,64,0.00,,,0.00,WUHU216HW,2013-06-17 11:42:00,
2013-06-17 04:47:00,59.4,47.2,27.48,ESE,113,0.9,0.9,64,0.00,,,0.00,WUHU216HW,2013-06-17 11:47:00,
2013-06-17 04:52:00,59.2,47.4,27.48,SSE,158,0.4,0.9,65,0.00,,,0.00,WUHU216HW,2013-06-17 11:52:00,
2013-06-17 04:57:00,58.9,47.1,27.48,ESE,113,0.9,0.9,65,0.00,,,0.00,WUHU216HW,2013-06-17 11:57:00,
2013-06-17 05:02:00,58.7,46.9,27.48,WSW,248,0.0,0.9,65,0.00,,,0.00,WUHU216HW,2013-06-17 12:02:00,
2013-06-17 05:07:00,58.7,47.4,27.48,ESE,113,0.7,2.0,66,0.00,,,0.00,WUHU216HW,2013-06-17 12:07:00,
2013-06-17 05:12:00,58.7,47.4,27.47,ESE,113,1.1,2.0,66,0.00,,,0.00,WUHU216HW,2013-06-17 12:12:00,
2013-06-17 05:17:00,58.7,47.7,27.48,SE,135,0.7,1.6,67,0.00,,,0.00,WUHU216HW,2013-06-17 12:17:00,
2013-06-17 05:22:00,58.7,47.4,27.48,ESE,113,0.9,1.6,66,0.00,,,0.00,WUHU216HW,2013-06-17 12:22:00,
2013-06-17 05:27:00,58.5,47.2,27.48,SE,135,1.1,1.3,66,0.00,,,0.00,WUHU216HW,2013-06-17 12:27:00,
2013-06-17 05:32:00,58.3,47.0,27.48,SE,135,1.1,1.6,66,0.00,,,0.00,WUHU216HW,2013-06-17 12:32:00,
2013-06-17 05:37:00,58.3,47.3,27.48,ESE,113,0.4,1.6,67,0.00,,,0.00,WUHU216HW,2013-06-17 12:37:00,
2013-06-17 05:42:00,58.3,47.0,27.49,ESE,113,2.7,2.7,66,0.00,,,0.00,WUHU216HW,2013-06-17 12:42:00,
2013-06-17 05:47:00,58.3,47.3,27.49,ESE,113,0.4,2.7,67,0.00,,,0.00,WUHU216HW,2013-06-17 12:47:00,
2013-06-17 05:52:00,58.3,47.8,27.49,ESE,113,0.4,1.6,68,0.00,,,0.00,WUHU216HW,2013-06-17 12:52:00,
2013-06-17 05:57:00,58.1,48.0,27.48,SE,135,0.4,1.6,69,0.00,,,0.00,WUHU216HW,2013-06-17 12:57:00,
2013-06-17 06:02:00,58.0,47.1,27.49,SE,135,0.2,1.1,67,0.00,,,0.00,WUHU216HW,2013-06-17 13:02:00,
2013-06-17 06:07:00,58.1,48.0,27.49,SE,135,2.0,2.0,69,0.00,,,0.00,WUHU216HW,2013-06-17 13:07:00,
2013-06-17 06:12:00,58.0,47.9,27.49,SE,135,3.1,3.1,69,0.00,,,0.00,WUHU216HW,2013-06-17 13:12:00,
2013-06-17 06:17:00,57.8,47.7,27.49,SE,135,1.1,3.1,69,0.00,,,0.00,WUHU216HW,2013-06-17 13:17:00,
2013-06-17 06:22:00,58.0,47.9,27.49,SE,135,0.7,2.0,69,0.00,,,0.00,WUHU216HW,2013-06-17 13:22:00,
2013-06-17 06:27:00,58.0,47.9,27.49,SSE,158,0.2,2.0,69,0.00,,,0.00,WUHU216HW,2013-06-17 13:27:00,
2013-06-17 06:32:00,58.3,48.2,27.49,SE,135,1.8,1.8,69,0.00,,,0.00,WUHU216HW,2013-06-17 13:32:00,
2013-06-17 06:37:00,58.7,47.7,27.49,ESE,113,1.8,2.0,67,0.00,,,0.00,WUHU216HW,2013-06-17 13:37:00,
2013-06-17 06:42:00,58.9,47.9,27.49,SSE,158,0.9,2.0,67,0.00,,,0.00,WUHU216HW,2013-06-17 13:42:00,
2013-06-17 06:47:00,58.9,47.9,27.49,SE,135,0.9,1.8,67,0.00,,,0.00,WUHU216HW,2013-06-17 13:47:00,
2013-06-17 06:52:00,58.9,47.9,27.49,ESE,113,1.6,1.8,67,0.00,,,0.00,WUHU216HW,2013-06-17 13:52:00,
2013-06-17 06:57:00,58.7,47.7,27.50,South,180,0.0,1.6,67,0.00,,,0.00,WUHU216HW,2013-06-17 13:57:00,
2013-06-17 07:02:00,58.7,47.7,27.50,SE,135,0.4,1.3,67,0.00,,,0.00,WUHU216HW,2013-06-17 14:02:00,
2013-06-17 07:07:00,58.7,47.4,27.50,SE,135,1.6,2.2,66,0.00,,,0.00,WUHU216HW,2013-06-17 14:07:00,
2013-06-17 07:12:00,58.7,47.7,27.50,SSE,158,1.1,2.2,67,0.00,,,0.00,WUHU216HW,2013-06-17 14:12:00,
2013-06-17 07:17:00,59.0,47.7,27.50,SE,135,1.8,1.8,66,0.00,,,0.00,WUHU216HW,2013-06-17 14:17:00,
2013-06-17 07:22:00,59.2,47.9,27.50,South,180,0.4,1.8,66,0.00,,,0.00,WUHU216HW,2013-06-17 14:22:00,
2013-06-17 07:27:00,59.4,47.6,27.50,SE,135,0.9,1.6,65,0.00,,,0.00,WUHU216HW,2013-06-17 14:27:00,
2013-06-17 07:32:00,59.8,48.0,27.50,SE,135,1.1,2.2,65,0.00,,,0.00,WUHU216HW,2013-06-17 14:32:00,
2013-06-17 07:37:00,60.3,48.5,27.51,SW,225,0.4,5.4,65,0.00,,,0.00,WUHU216HW,2013-06-17 14:37:00,
2013-06-17 07:42:00,60.8,49.1,27.51,ESE,113,1.3,5.4,65,0.00,,,0.00,WUHU216HW,2013-06-17 14:42:00,
2013-06-17 07:47:00,61.2,48.5,27.51,ESE,113,1.3,2.5,63,0.00,,,0.00,WUHU216HW,2013-06-17 14:47:00,
2013-06-17 07:52:00,61.6,49.3,27.51,SSW,203,0.4,2.5,64,0.00,,,0.00,WUHU216HW,2013-06-17 14:52:00,
2013-06-17 07:57:00,62.5,49.7,27.51,ESE,113,0.4,1.8,63,0.00,,,0.00,WUHU216HW,2013-06-17 14:57:00,
2013-06-17 08:02:00,63.4,49.7,27.51,SSE,158,1.1,2.5,61,0.00,,,0.00,WUHU216HW,2013-06-17 15:02:00,
2013-06-17 08:07:00,64.1,49.9,27.51,SE,135,1.3,2.5,60,0.00,,,0.00,WUHU216HW,2013-06-17 15:07:00,
2013-06-17 08:12:00,64.8,50.1,27.51,ENE,68,2.5,2.5,59,0.00,,,0.00,WUHU216HW,2013-06-17 15:12:00,
2013-06-17 08:17:00,65.3,50.7,27.51,SSW,203,0.9,2.5,59,0.00,,,0.00,WUHU216HW,2013-06-17 15:17:00,
2013-06-17 08:22:00,65.9,51.7,27.51,SW,225,1.1,2.7,60,0.00,,,0.00,WUHU216HW,2013-06-17 15:22:00,
2013-06-17 08:27:00,66.4,51.2,27.51,SSW,203,2.2,3.1,58,0.00,,,0.00,WUHU216HW,2013-06-17 15:27:00,
2013-06-17 08:32:00,67.1,51.8,27.51,ESE,113,2.9,3.1,58,0.00,,,0.00,WUHU216HW,2013-06-17 15:32:00,
2013-06-17 08:37:00,67.5,51.2,27.51,SW,225,0.7,3.1,56,0.00,,,0.00,WUHU216HW,2013-06-17 15:37:00,
2013-06-17 08:42:00,68.0,51.7,27.51,SE,135,1.1,3.1,56,0.00,,,0.00,WUHU216HW,2013-06-17 15:42:00,
2013-06-17 08:47:00,68.6,51.8,27.51,SSW,203,1.8,2.5,55,0.00,,,0.00,WUHU216HW,2013-06-17 15:47:00,
2013-06-17 08:52:00,68.9,51.6,27.51,WSW,248,4.5,4.5,54,0.00,,,0.00,WUHU216HW,2013-06-17 15:52:00,
2013-06-17 08:57:00,69.3,51.4,27.51,WSW,248,3.4,4.7,53,0.00,,,0.00,WUHU216HW,2013-06-17 15:57:00,
2013-06-17 09:02:00,69.7,52.3,27.51,WSW,248,3.1,4.7,54,0.00,,,0.00,WUHU216HW,2013-06-17 16:02:00,
2013-06-17 09:07:00,70.2,51.8,27.51,WSW,248,2.2,3.4,52,0.00,,,0.00,WUHU216HW,2013-06-17 16:07:00,
2013-06-17 09:12:00,70.6,52.6,27.51,SW,225,2.0,3.4,53,0.00,,,0.00,WUHU216HW,2013-06-17 16:12:00,
2013-06-17 09:17:00,71.1,53.0,27.51,SSW,203,2.5,3.6,53,0.00,,,0.00,WUHU216HW,2013-06-17 16:17:00,
2013-06-17 09:22:00,71.3,52.2,27.51,WSW,248,3.1,4.0,51,0.00,,,0.00,WUHU216HW,2013-06-17 16:22:00,
2013-06-17 09:27:00,71.8,52.7,27.51,WSW,248,3.1,4.0,51,0.00,,,0.00,WUHU216HW,2013-06-17 16:27:00,
2013-06-17 09:32:00,72.4,52.7,27.51,SW,225,2.0,3.1,50,0.00,,,0.00,WUHU216HW,2013-06-17 16:32:00,
2013-06-17 09:37:00,72.7,52.4,27.51,South,180,1.8,3.1,49,0.00,,,0.00,WUHU216HW,2013-06-17 16:37:00,
2013-06-17 09:42:00,72.9,52.6,27.51,SW,225,1.8,2.5,49,0.00,,,0.00,WUHU216HW,2013-06-17 16:42:00,
2013-06-17 09:47:00,73.1,52.8,27.51,WSW,248,2.9,3.6,49,0.00,,,0.00,WUHU216HW,2013-06-17 16:47:00,
2013-06-17 09:52:00,73.8,53.4,27.51,West,270,2.0,3.6,49,0.00,,,0.00,WUHU216HW,2013-06-17 16:52:00,
2013-06-17 09:57:00,74.2,51.9,27.51,SW,225,1.8,4.5,46,0.00,,,0.00,WUHU216HW,2013-06-17 16:57:00,
2013-06-17 10:02:00,73.6,51.5,27.50,SSW,203,3.4,5.1,46,0.00,,,0.00,WUHU216HW,2013-06-17 17:02:00,
2013-06-17 10:07:00,72.4,51.5,27.50,SW,225,2.5,5.1,48,0.00,,,0.00,WUHU216HW,2013-06-17 17:07:00,
2013-06-17 10:12:00,72.0,51.1,27.50,SSW,203,4.7,4.7,48,0.00,,,0.00,WUHU216HW,2013-06-17 17:12:00,
2013-06-17 10:17:00,72.7,51.9,27.50,SW,225,4.0,4.7,48,0.00,,,0.00,WUHU216HW,2013-06-17 17:17:00,
2013-06-17 10:22:00,73.4,51.3,27.50,SW,225,3.8,5.8,46,0.00,,,0.00,WUHU216HW,2013-06-17 17:22:00,
2013-06-17 10:27:00,73.8,51.6,27.50,SW,225,4.3,5.8,46,0.00,,,0.00,WUHU216HW,2013-06-17 17:27:00,
2013-06-17 10:32:00,74.3,51.6,27.51,SSE,158,1.6,4.3,45,0.00,,,0.00,WUHU216HW,2013-06-17 17:32:00,
2013-06-17 10:37:00,74.0,51.2,27.51,SW,225,1.8,4.5,45,0.00,,,0.00,WUHU216HW,2013-06-17 17:37:00,
2013-06-17 10:42:00,74.5,52.3,27.51,WSW,248,3.4,4.5,46,0.00,,,0.00,WUHU216HW,2013-06-17 17:42:00,
2013-06-17 10:47:00,74.5,52.9,27.51,SW,225,4.7,4.7,47,0.00,,,0.00,WUHU216HW,2013-06-17 17:47:00,
2013-06-17 10:52:00,74.7,51.8,27.50,WSW,248,4.0,4.7,45,0.00,,,0.00,WUHU216HW,2013-06-17 17:52:00,
2013-06-17 10:57:00,74.7,51.8,27.50,SSW,203,2.7,4.0,45,0.00,,,0.00,WUHU216HW,2013-06-17 17:57:00,
2013-06-17 11:02:00,74.7,51.8,27.50,SW,225,2.2,4.5,45,0.00,,,0.00,WUHU216HW,2013-06-17 18:02:00,
2013-06-17 11:07:00,75.2,53.0,27.50,SW,225,2.2,4.7,46,0.00,,,0.00,WUHU216HW,2013-06-17 18:07:00,
2013-06-17 11:12:00,76.0,52.4,27.50,West,270,4.0,4.7,44,0.00,,,0.00,WUHU216HW,2013-06-17 18:12:00,
2013-06-17 11:17:00,76.3,53.4,27.50,WSW,248,2.7,4.0,45,0.00,,,0.00,WUHU216HW,2013-06-17 18:17:00,
2013-06-17 11:22:00,76.5,51.7,27.50,SSE,158,2.7,2.9,42,0.00,,,0.00,WUHU216HW,2013-06-17 18:22:00,
2013-06-17 11:27:00,76.5,52.3,27.50,SW,225,2.0,3.4,43,0.00,,,0.00,WUHU216HW,2013-06-17 18:27:00,
2013-06-17 11:32:00,76.7,52.5,27.49,SW,225,3.1,3.8,43,0.00,,,0.00,WUHU216HW,2013-06-17 18:32:00,
2013-06-17 11:37:00,76.7,51.8,27.49,WSW,248,0.7,4.3,42,0.00,,,0.00,WUHU216HW,2013-06-17 18:37:00,
2013-06-17 11:42:00,76.7,53.1,27.49,SSW,203,4.0,4.3,44,0.00,,,0.00,WUHU216HW,2013-06-17 18:42:00,
2013-06-17 11:47:00,77.4,52.5,27.49,WSW,248,2.5,4.9,42,0.00,,,0.00,WUHU216HW,2013-06-17 18:47:00,
2013-06-17 11:52:00,77.9,52.4,27.49,SW,225,2.5,4.9,41,0.00,,,0.00,WUHU216HW,2013-06-17 18:52:00,
2013-06-17 11:57:00,77.9,52.4,27.49,SW,225,3.6,6.7,41,0.00,,,0.00,WUHU216HW,2013-06-17 18:57:00,
2013-06-17 12:02:00,77.9,51.8,27.49,WSW,248,2.7,6.7,40,0.00,,,0.00,WUHU216HW,2013-06-17 19:02:00,
2013-06-17 12:07:00,78.1,51.9,27.49,SSW,203,1.1,4.7,40,0.00,,,0.00,WUHU216HW,2013-06-17 19:07:00,
2013-06-17 12:12:00,78.3,52.1,27.49,SW,225,2.5,4.7,40,0.00,,,0.00,WUHU216HW,2013-06-17 19:12:00,
2013-06-17 12:17:00,78.5,52.2,27.49,SW,225,1.8,4.7,40,0.00,,,0.00,WUHU216HW,2013-06-17 19:17:00,
2013-06-17 12:22:00,79.0,51.9,27.49,South,180,2.7,4.7,39,0.00,,,0.00,WUHU216HW,2013-06-17 19:22:00,
2013-06-17 12:27:00,79.0,51.2,27.49,NNW,338,1.1,5.4,38,0.00,,,0.00,WUHU216HW,2013-06-17 19:27:00,
2013-06-17 12:32:00,78.7,50.9,27.48,North,0,0.4,5.4,38,0.00,,,0.00,WUHU216HW,2013-06-17 19:32:00,
2013-06-17 12:37:00,78.5,50.7,27.48,ESE,113,1.3,2.9,38,0.00,,,0.00,WUHU216HW,2013-06-17 19:37:00,
2013-06-17 12:42:00,78.7,50.9,27.48,SW,225,2.2,4.0,38,0.00,,,0.00,WUHU216HW,2013-06-17 19:42:00,
2013-06-17 12:47:00,78.8,51.8,27.48,WNW,293,1.6,4.0,39,0.00,,,0.00,WUHU216HW,2013-06-17 19:47:00,
2013-06-17 12:52:00,79.6,51.7,27.48,WSW,248,1.8,5.1,38,0.00,,,0.00,WUHU216HW,2013-06-17 19:52:00,
2013-06-17 12:57:00,80.5,52.5,27.48,NE,45,0.4,5.1,38,0.00,,,0.00,WUHU216HW,2013-06-17 19:57:00,
2013-06-17 13:02:00,80.3,51.6,27.48,ESE,113,1.3,3.4,37,0.00,,,0.00,WUHU216HW,2013-06-17 20:02:00,
2013-06-17 13:07:00,80.3,50.0,27.47,NE,45,0.9,3.4,35,0.00,,,0.00,WUHU216HW,2013-06-17 20:07:00,
2013-06-17 13:12:00,80.3,52.3,27.47,SW,225,1.1,3.4,38,0.00,,,0.00,WUHU216HW,2013-06-17 20:12:00,
2013-06-17 13:17:00,80.5,50.1,27.47,SW,225,2.9,4.3,35,0.00,,,0.00,WUHU216HW,2013-06-17 20:17:00,
2013-06-17 13:22:00,80.3,51.6,27.47,SW,225,0.7,5.8,37,0.00,,,0.00,WUHU216HW,2013-06-17 20:22:00,
2013-06-17 13:27:00,80.5,51.7,27.47,SW,225,0.9,5.8,37,0.00,,,0.00,WUHU216HW,2013-06-17 20:27:00,
2013-06-17 13:32:00,81.2,52.3,27.46,NNE,23,0.9,4.5,37,0.00,,,0.00,WUHU216HW,2013-06-17 20:32:00,
2013-06-17 13:37:00,81.4,50.1,27.46,SE,135,1.6,2.5,34,0.00,,,0.00,WUHU216HW,2013-06-17 20:37:00,
2013-06-17 13:42:00,81.2,49.2,27.46,SW,225,3.4,5.4,33,0.00,,,0.00,WUHU216HW,2013-06-17 20:42:00,
2013-06-17 13:47:00,81.0,49.9,27.46,WSW,248,2.0,5.4,34,0.00,,,0.00,WUHU216HW,2013-06-17 20:47:00,
2013-06-17 13:52:00,80.8,50.5,27.46,SE,135,2.2,3.4,35,0.00,,,0.00,WUHU216HW,2013-06-17 20:52:00,
2013-06-17 13:57:00,80.5,48.6,27.46,WSW,248,2.0,2.7,33,0.00,,,0.00,WUHU216HW,2013-06-17 20:57:00,
2013-06-17 14:02:00,81.2,50.0,27.46,SSW,203,0.4,4.0,34,0.00,,,0.00,WUHU216HW,2013-06-17 21:02:00,
2013-06-17 14:07:00,82.1,50.8,27.46,SE,135,1.1,4.0,34,0.00,,,0.00,WUHU216HW,2013-06-17 21:07:00,
2013-06-17 14:12:00,81.7,48.1,27.45,ESE,113,2.5,3.6,31,0.00,,,0.00,WUHU216HW,2013-06-17 21:12:00,
2013-06-17 14:17:00,81.5,51.1,27.45,SSW,203,1.8,3.6,35,0.00,,,0.00,WUHU216HW,2013-06-17 21:17:00,
2013-06-17 14:22:00,82.1,50.0,27.45,South,180,2.2,4.0,33,0.00,,,0.00,WUHU216HW,2013-06-17 21:22:00,
2013-06-17 14:27:00,81.0,49.1,27.45,SSW,203,3.8,4.0,33,0.00,,,0.00,WUHU216HW,2013-06-17 21:27:00,
2013-06-17 14:32:00,79.6,48.6,27.45,SW,225,1.8,4.0,34,0.00,,,0.00,WUHU216HW,2013-06-17 21:32:00,
2013-06-17 14:37:00,79.2,49.1,27.45,West,270,0.4,2.5,35,0.00,,,0.00,WUHU216HW,2013-06-17 21:37:00,
2013-06-17 14:42:00,79.0,48.9,27.45,West,270,0.4,1.6,35,0.00,,,0.00,WUHU216HW,2013-06-17 21:42:00,
2013-06-17 14:47:00,79.0,48.9,27.45,SSE,158,0.9,1.6,35,0.00,,,0.00,WUHU216HW,2013-06-17 21:47:00,
2013-06-17 14:52:00,80.6,49.5,27.45,NE,45,2.7,3.4,34,0.00,,,0.00,WUHU216HW,2013-06-17 21:52:00,
2013-06-17 14:57:00,80.8,49.7,27.44,ENE,68,0.4,3.4,34,0.00,,,0.00,WUHU216HW,2013-06-17 21:57:00,
2013-06-17 15:02:00,80.3,49.2,27.44,WSW,248,2.2,2.7,34,0.00,,,0.00,WUHU216HW,2013-06-17 22:02:00,
2013-06-17 15:07:00,81.2,50.8,27.44,SSW,203,0.4,3.4,35,0.00,,,0.00,WUHU216HW,2013-06-17 22:07:00,
2013-06-17 15:12:00,80.8,48.9,27.44,SSE,158,1.3,3.4,33,0.00,,,0.00,WUHU216HW,2013-06-17 22:12:00,
2013-06-17 15:17:00,79.7,48.7,27.44,SE,135,1.8,2.5,34,0.00,,,0.00,WUHU216HW,2013-06-17 22:17:00,
2013-06-17 15:22:00,79.7,48.7,27.43,ENE,68,0.0,2.2,34,0.00,,,0.00,WUHU216HW,2013-06-17 22:22:00,
2013-06-17 15:27:00,79.6,49.3,27.43,SW,225,1.1,2.0,35,0.00,,,0.00,WUHU216HW,2013-06-17 22:27:00,
2013-06-17 15:32:00,79.4,48.4,27.43,SSW,203,2.2,2.2,34,0.00,,,0.00,WUHU216HW,2013-06-17 22:32:00,
2013-06-17 15:37:00,79.2,48.2,27.43,SW,225,1.6,2.2,34,0.00,,,0.00,WUHU216HW,2013-06-17 22:37:00,
2013-06-17 15:42:00,79.7,48.0,27.43,NNE,23,1.8,2.0,33,0.00,,,0.00,WUHU216HW,2013-06-17 22:42:00,
2013-06-17 15:47:00,80.1,48.2,27.43,SW,225,1.8,2.0,33,0.00,,,0.00,WUHU216HW,2013-06-17 22:47:00,
2013-06-17 15:52:00,80.1,48.2,27.43,SW,225,1.8,4.5,33,0.00,,,0.00,WUHU216HW,2013-06-17 22:52:00,
2013-06-17 15:57:00,79.6,48.6,27.43,SSW,203,2.2,4.5,34,0.00,,,0.00,WUHU216HW,2013-06-17 22:57:00,
2013-06-17 16:02:00,79.4,47.6,27.42,SW,225,1.1,2.2,33,0.00,,,0.00,WUHU216HW,2013-06-17 23:02:00,
2013-06-17 16:07:00,80.5,49.4,27.42,SW,225,3.6,4.3,34,0.00,,,0.00,WUHU216HW,2013-06-17 23:07:00,
2013-06-17 16:12:00,81.7,49.7,27.42,SSE,158,1.1,4.3,33,0.00,,,0.00,WUHU216HW,2013-06-17 23:12:00,
2013-06-17 16:17:00,82.4,48.7,27.42,SW,225,1.1,5.8,31,0.00,,,0.00,WUHU216HW,2013-06-17 23:17:00,
2013-06-17 16:22:00,82.6,48.9,27.42,WSW,248,1.3,5.8,31,0.00,,,0.00,WUHU216HW,2013-06-17 23:22:00,
2013-06-17 16:27:00,83.2,49.3,27.41,North,0,1.8,2.2,31,0.00,,,0.00,WUHU216HW,2013-06-17 23:27:00,
2013-06-17 16:32:00,83.5,49.7,27.41,SSW,203,0.4,2.5,31,0.00,,,0.00,WUHU216HW,2013-06-17 23:32:00,
2013-06-17 16:37:00,83.7,49.1,27.41,SW,225,1.8,3.4,30,0.00,,,0.00,WUHU216HW,2013-06-17 23:37:00,
2013-06-17 16:42:00,83.9,48.2,27.41,SSW,203,1.8,3.4,29,0.00,,,0.00,WUHU216HW,2013-06-17 23:42:00,
2013-06-17 16:47:00,83.7,46.9,27.41,SW,225,2.9,5.8,28,0.00,,,0.00,WUHU216HW,2013-06-17 23:47:00,
2013-06-17 16:52:00,82.8,46.1,27.41,WSW,248,3.4,5.8,28,0.00,,,0.00,WUHU216HW,2013-06-17 23:52:00,
2013-06-17 16:57:00,82.4,46.8,27.41,SW,225,3.8,4.0,29,0.00,,,0.00,WUHU216HW,2013-06-17 23:57:00,
2013-06-17 17:03:00,82.4,46.8,27.41,East,90,1.8,3.8,29,0.00,,,0.00,WUHU216HW,2013-06-18 00:03:00,
2013-06-17 17:07:00,81.7,47.4,27.40,WSW,248,2.5,2.5,30,0.00,,,0.00,WUHU216HW,2013-06-18 00:07:00,
2013-06-17 17:12:00,82.1,47.6,27.40,SW,225,0.9,2.5,30,0.00,,,0.00,WUHU216HW,2013-06-18 00:12:00,
2013-06-17 17:17:00,82.1,47.6,27.40,WSW,248,1.1,2.9,30,0.00,,,0.00,WUHU216HW,2013-06-18 00:17:00,
2013-06-17 17:23:00,82.3,46.7,27.40,WSW,248,1.1,4.7,29,0.00,,,0.00,WUHU216HW,2013-06-18 00:23:00,
2013-06-17 17:28:00,82.4,46.8,27.40,SW,225,4.3,4.7,29,0.00,,,0.00,WUHU216HW,2013-06-18 00:28:00,
2013-06-17 17:33:00,82.4,47.9,27.39,West,270,1.1,4.7,30,0.00,,,0.00,WUHU216HW,2013-06-18 00:33:00,
2013-06-17 17:38:00,82.3,47.7,27.39,West,270,2.0,3.1,30,0.00,,,0.00,WUHU216HW,2013-06-18 00:38:00,
2013-06-17 17:43:00,82.1,46.5,27.39,WSW,248,0.4,2.0,29,0.00,,,0.00,WUHU216HW,2013-06-18 00:43:00,
2013-06-17 17:48:00,81.7,46.3,27.39,WSW,248,2.0,2.0,29,0.00,,,0.00,WUHU216HW,2013-06-18 00:48:00,
2013-06-17 17:53:00,81.7,47.4,27.38,WNW,293,1.1,2.0,30,0.00,,,0.00,WUHU216HW,2013-06-18 00:53:00,
2013-06-17 17:58:00,82.1,46.5,27.38,SW,225,0.9,3.4,29,0.00,,,0.00,WUHU216HW,2013-06-18 00:58:00,
2013-06-17 18:03:00,81.9,46.5,27.38,SW,225,0.9,3.4,29,0.00,,,0.00,WUHU216HW,2013-06-18 01:03:00,
2013-06-17 18:08:00,81.7,45.2,27.38,SE,135,1.1,1.8,28,0.00,,,0.00,WUHU216HW,2013-06-18 01:08:00,
2013-06-17 18:13:00,81.4,46.0,27.37,West,270,0.4,1.8,29,0.00,,,0.00,WUHU216HW,2013-06-18 01:13:00,
2013-06-17 18:18:00,81.2,44.8,27.37,West,270,1.3,1.8,28,0.00,,,0.00,WUHU216HW,2013-06-18 01:18:00,
2013-06-17 18:23:00,81.0,45.7,27.37,WSW,248,0.9,1.8,29,0.00,,,0.00,WUHU216HW,2013-06-18 01:23:00,
2013-06-17 18:28:00,80.8,45.5,27.37,WNW,293,0.0,0.9,29,0.00,,,0.00,WUHU216HW,2013-06-18 01:28:00,
2013-06-17 18:33:00,80.5,46.3,27.37,WSW,248,0.2,1.1,30,0.00,,,0.00,WUHU216HW,2013-06-18 01:33:00,
2013-06-17 18:38:00,80.1,46.0,27.37,SW,225,1.6,1.8,30,0.00,,,0.00,WUHU216HW,2013-06-18 01:38:00,
2013-06-17 18:43:00,79.9,45.8,27.37,WSW,248,1.1,1.8,30,0.00,,,0.00,WUHU216HW,2013-06-18 01:43:00,
2013-06-17 18:48:00,79.9,45.8,27.37,ENE,68,0.7,1.6,30,0.00,,,0.00,WUHU216HW,2013-06-18 01:48:00,
2013-06-17 18:53:00,79.7,45.6,27.37,WSW,248,0.4,0.9,30,0.00,,,0.00,WUHU216HW,2013-06-18 01:53:00,
2013-06-17 18:58:00,79.4,46.1,27.36,WSW,248,0.0,0.4,31,0.00,,,0.00,WUHU216HW,2013-06-18 01:58:00,
2013-06-17 19:03:00,79.2,46.7,27.36,South,180,0.4,0.4,32,0.00,,,0.00,WUHU216HW,2013-06-18 02:03:00,
2013-06-17 19:08:00,79.0,46.5,27.36,WSW,248,0.2,1.8,32,0.00,,,0.00,WUHU216HW,2013-06-18 02:08:00,
2013-06-17 19:13:00,78.8,46.4,27.36,West,270,1.8,1.8,32,0.00,,,0.00,WUHU216HW,2013-06-18 02:13:00,
2013-06-17 19:18:00,78.5,46.1,27.35,WSW,248,0.0,2.0,32,0.00,,,0.00,WUHU216HW,2013-06-18 02:18:00,
2013-06-17 19:23:00,78.3,46.7,27.35,NW,315,0.0,2.0,33,0.00,,,0.00,WUHU216HW,2013-06-18 02:23:00,
2013-06-17 19:28:00,78.1,46.5,27.35,WSW,248,0.0,0.7,33,0.00,,,0.00,WUHU216HW,2013-06-18 02:28:00,
2013-06-17 19:33:00,78.1,46.5,27.35,NE,45,0.0,0.7,33,0.00,,,0.00,WUHU216HW,2013-06-18 02:33:00,
2013-06-17 19:38:00,78.1,46.5,27.34,WSW,248,0.2,0.4,33,0.00,,,0.00,WUHU216HW,2013-06-18 02:38:00,
2013-06-17 19:43:00,77.8,47.0,27.34,WNW,293,0.0,0.4,34,0.00,,,0.00,WUHU216HW,2013-06-18 02:43:00,
2013-06-17 19:48:00,77.8,46.3,27.34,SW,225,0.0,1.1,33,0.00,,,0.00,WUHU216HW,2013-06-18 02:48:00,
2013-06-17 19:53:00,77.8,45.5,27.34,East,90,0.7,1.1,32,0.00,,,0.00,WUHU216HW,2013-06-18 02:53:00,
2013-06-17 19:58:00,77.8,46.3,27.34,ENE,68,0.0,0.9,33,0.00,,,0.00,WUHU216HW,2013-06-18 02:58:00,
2013-06-17 20:03:00,77.4,46.7,27.34,North,0,0.0,0.0,34,0.00,,,0.00,WUHU216HW,2013-06-18 03:03:00,
2013-06-17 20:08:00,77.0,46.5,27.34,North,0,0.2,0.2,34,0.00,,,0.00,WUHU216HW,2013-06-18 03:08:00,
2013-06-17 20:13:00,76.7,46.1,27.34,North,0,0.0,0.4,34,0.00,,,0.00,WUHU216HW,2013-06-18 03:13:00,
2013-06-17 20:18:00,76.3,46.5,27.35,North,0,0.0,0.4,35,0.00,,,0.00,WUHU216HW,2013-06-18 03:18:00,
2013-06-17 20:23:00,75.8,46.8,27.35,NW,315,0.0,0.0,36,0.00,,,0.00,WUHU216HW,2013-06-18 03:23:00,
2013-06-17 20:28:00,75.2,47.1,27.35,NW,315,0.0,0.0,37,0.00,,,0.00,WUHU216HW,2013-06-18 03:28:00,
2013-06-17 20:33:00,74.7,46.5,27.35,NW,315,0.0,0.0,37,0.00,,,0.00,WUHU216HW,2013-06-18 03:33:00,
2013-06-17 20:38:00,74.2,46.8,27.35,NW,315,0.0,0.0,38,0.00,,,0.00,WUHU216HW,2013-06-18 03:38:00,
2013-06-17 20:43:00,73.8,46.5,27.35,WSW,248,1.1,1.1,38,0.00,,,0.00,WUHU216HW,2013-06-18 03:43:00,
2013-06-17 20:48:00,73.3,46.8,27.36,WSW,248,0.0,1.1,39,0.00,,,0.00,WUHU216HW,2013-06-18 03:48:00,
2013-06-17 20:53:00,72.9,47.3,27.36,WSW,248,0.0,1.1,40,0.00,,,0.00,WUHU216HW,2013-06-18 03:53:00,
2013-06-17 20:58:00,72.4,46.7,27.36,WSW,248,0.0,0.7,40,0.00,,,0.00,WUHU216HW,2013-06-18 03:58:00,
2013-06-17 21:01:00,72.2,46.5,27.36,NE,45,0.7,0.7,40,0.00,,,0.00,WUHU216HW,2013-06-18 04:01:00,
2013-06-17 21:06:00,72.0,46.5,27.36,NE,45,0.0,0.7,40,0.00,,,0.00,WUHU216HW,2013-06-18 04:06:00,
2013-06-17 21:11:00,71.6,46.1,27.36,NNE,23,0.0,0.7,40,0.00,,,0.00,WUHU216HW,2013-06-18 04:11:00,
2013-06-17 21:16:00,71.5,46.5,27.36,WNW,293,0.4,0.9,41,0.00,,,0.00,WUHU216HW,2013-06-18 04:16:00,
2013-06-17 21:21:00,71.1,46.2,27.35,North,0,0.0,0.9,41,0.00,,,0.00,WUHU216HW,2013-06-18 04:21:00,
2013-06-17 21:26:00,70.9,46.0,27.36,WNW,293,0.4,0.7,41,0.00,,,0.00,WUHU216HW,2013-06-18 04:26:00,
2013-06-17 21:31:00,70.9,46.6,27.35,WSW,248,1.1,1.1,42,0.00,,,0.00,WUHU216HW,2013-06-18 04:31:00,
2013-06-17 21:36:00,70.7,46.4,27.35,NE,45,1.1,2.0,42,0.00,,,0.00,WUHU216HW,2013-06-18 04:36:00,
2013-06-17 21:41:00,70.9,46.6,27.36,SW,225,1.6,2.5,42,0.00,,,0.00,WUHU216HW,2013-06-18 04:41:00,
2013-06-17 21:46:00,70.9,46.6,27.39,SW,225,1.1,2.5,42,0.00,,,0.00,WUHU216HW,2013-06-18 04:46:00,
2013-06-17 21:51:00,70.9,47.3,27.40,SW,225,1.8,2.5,43,0.00,,,0.00,WUHU216HW,2013-06-18 04:51:00,
2013-06-17 21:56:00,70.6,46.3,27.39,WSW,248,0.0,1.8,42,0.00,,,0.00,WUHU216HW,2013-06-18 04:56:00,
2013-06-17 22:01:00,70.4,46.7,27.40,NNW,338,0.4,1.8,43,0.00,,,0.00,WUHU216HW,2013-06-18 05:01:00,
2013-06-17 22:06:00,70.2,47.8,27.38,SW,225,0.2,1.8,45,0.00,,,0.00,WUHU216HW,2013-06-18 05:06:00,
2013-06-17 22:11:00,69.5,47.1,27.38,NE,45,1.6,2.0,45,0.00,,,0.00,WUHU216HW,2013-06-18 05:11:00,
2013-06-17 22:16:00,68.8,47.6,27.38,SW,225,0.9,2.7,47,0.00,,,0.00,WUHU216HW,2013-06-18 05:16:00,
2013-06-17 22:21:00,68.2,46.5,27.39,SW,225,1.6,4.5,46,0.00,,,0.00,WUHU216HW,2013-06-18 05:21:00,
2013-06-17 22:26:00,67.7,46.7,27.39,WSW,248,2.0,4.5,47,0.00,,,0.00,WUHU216HW,2013-06-18 05:26:00,
2013-06-17 22:31:00,67.3,45.7,27.39,NNE,23,1.1,2.0,46,0.00,,,0.00,WUHU216HW,2013-06-18 05:31:00,
2013-06-17 22:36:00,67.1,45.6,27.38,West,270,0.7,1.1,46,0.00,,,0.00,WUHU216HW,2013-06-18 05:36:00,
2013-06-17 22:41:00,67.0,46.0,27.38,WSW,248,0.9,2.0,47,0.00,,,0.00,WUHU216HW,2013-06-18 05:41:00,
2013-06-17 22:46:00,66.4,46.2,27.38,West,270,1.6,2.9,48,0.00,,,0.00,WUHU216HW,2013-06-18 05:46:00,
2013-06-17 22:51:00,66.1,46.4,27.37,SSW,203,2.2,3.4,49,0.00,,,0.00,WUHU216HW,2013-06-18 05:51:00,
2013-06-17 22:56:00,65.7,46.0,27.37,South,180,0.4,3.4,49,0.00,,,0.00,WUHU216HW,2013-06-18 05:56:00,
2013-06-17 23:01:00,65.3,45.7,27.37,South,180,2.5,2.5,49,0.00,,,0.00,WUHU216HW,2013-06-18 06:01:00,
2013-06-17 23:06:00,65.2,45.6,27.37,NE,45,1.6,2.5,49,0.00,,,0.00,WUHU216HW,2013-06-18 06:06:00,
2013-06-17 23:11:00,65.2,46.1,27.37,SSE,158,1.1,2.0,50,0.00,,,0.00,WUHU216HW,2013-06-18 06:11:00,
2013-06-17 23:16:00,65.0,46.4,27.37,SW,225,2.5,2.5,51,0.00,,,0.00,WUHU216HW,2013-06-18 06:16:00,
2013-06-17 23:21:00,64.8,45.7,27.37,ENE,68,0.7,2.5,50,0.00,,,0.00,WUHU216HW,2013-06-18 06:21:00,
2013-06-17 23:26:00,64.6,45.5,27.38,West,270,0.0,1.6,50,0.00,,,0.00,WUHU216HW,2013-06-18 06:26:00,
2013-06-17 23:31:00,64.4,45.8,27.38,WSW,248,0.7,0.7,51,0.00,,,0.00,WUHU216HW,2013-06-18 06:31:00,
2013-06-17 23:36:00,64.4,45.8,27.38,West,270,0.0,1.3,51,0.00,,,0.00,WUHU216HW,2013-06-18 06:36:00,
2013-06-17 23:41:00,64.3,46.2,27.39,SW,225,0.7,1.8,52,0.00,,,0.00,WUHU216HW,2013-06-18 06:41:00,
2013-06-17 23:46:00,64.1,47.0,27.39,NE,45,0.4,1.8,54,0.00,,,0.00,WUHU216HW,2013-06-18 06:46:00,
2013-06-17 23:51:00,63.9,47.4,27.40,ESE,113,0.4,2.5,55,0.00,,,0.00,WUHU216HW,2013-06-18 06:51:00,
2013-06-17 23:56:00,63.7,46.6,27.39,NE,45,0.0,2.5,54,0.00,,,0.00,WUHU216HW,2013-06-18 06:56:00,